North Platte Regional Airport Lee Bird Field
KLBF : rendu visible

Aérodrome :











RETROUVEZ-NOUS SUR...

 
LOGIN :

S'inscrire | Disclaimer

   EN    FR    IT 

 









Légende :    VFR   VFR Marginal   IFR   IFR Intensif   IFR Très Intensif
Visi : 
Plafond : 
>= 8 km
>= 3000ft
5 à 8 km
1000 à 3000 ft
1500m à 5 km
500 à 1000 ft
800 à 1500m
200 à 500 ft
< 800m
< 200 ft
Symboles :   Orages  Brouillard  Fortes neiges  Fortes précipitations  Vent > 20 kt







- Altitude de l'aérodrome : 2777 ft
- Code IATA : LBF


KLBF - North Platte Regional Lee Bird Field

DERNIER METAR :
  • 251053Z AUTO 15006KT 10SM OVC002 17/16 A2988 RMK AO2 SLP095 T01670156

METARs EXPIRÉS :
  • 251007Z AUTO 14005KT 10SM OVC003 17/16 A2989 RMK AO2 CIG 002V007 T01670156
  • 250953Z AUTO 14006KT 10SM OVC005 17/16 A2989 RMK AO2 CIG 002V007 SLP099 T01670156
  • 250904Z AUTO 11005KT 10SM BKN007 16/15 A2990 RMK AO2 T01560150
  • 250853Z AUTO 12003KT 10SM SCT009 16/15 A2991 RMK AO2 SLP105 T01610150 56015
  • 250841Z AUTO 11005KT 10SM FEW009 16/15 A2991 RMK AO2 T01610150

TAF KLBF
Valide du 25 à 12h jusqu'au 26 à 12h UTC


251133Z 2512/2612 15007KT 2SM BR OVC003
FM251300 15008KT 5SM BR OVC004
FM251800 16009KT P6SM OVC012
FM260800 12006KT P6SM BKN035 WS020/21030KT
FM260900 08006KT P6SM BKN023
Pas de NOTAMs connus pour ce terrain.



MET'MAP, la Météo Aéronautique d'un coup d'oeil ! - Copyright ORBIFLY Décembre 2007 - Disclaimer

ORBIFLY MET'MAP TEAM :

Programmation & Développement : Alexandra Zaïnal
Conception & Développement : Baudouin d'Aumeries
Co-Programmation & Développement : Marc-Olivier Méhu
Soutien technique & logistique : Manuel Goepfert

Contact : metmap@orbifly.com




SOURCES & CREDITS :

   NOAA       Earth
Advisory